Boise Air Terminal/Gowen field


Codes: KBOI/BOI
Name: Boise Air Terminal/Gowen field
City: Boise
Country: United States
Elevation: 2871 ft.
Website:
Wikipedia:

Photos at Boise Air Terminal/Gowen field


   Photos courtesy of SpottingLog. You can add your own sightings and photos by signing up for a free trial today.



No photos found.

Weather at Boise Air Terminal/Gowen field


Time (UTC)DescriptionTempratureWindCloud coverageVisibilityPressureHumidity
18-Apr-2024 00:00Few Clouds11°C18 mph, NW20%10000m1023hPa25%
18-Apr-2024 03:00Few Clouds10°C9 mph, NW14%10000m1023hPa31%
18-Apr-2024 06:00Clear Sky6°C2 mph, NW7%10000m1025hPa41%
18-Apr-2024 09:00Clear Sky2°C2 mph, S0%10000m1026hPa54%
18-Apr-2024 12:00Clear Sky2°C4 mph, SE0%10000m1027hPa54%
18-Apr-2024 15:00Clear Sky5°C7 mph, SE2%10000m1027hPa50%
18-Apr-2024 18:00Clear Sky10°C9 mph, S4%10000m1024hPa37%
18-Apr-2024 21:00Scattered Clouds13°C9 mph, S47%10000m1020hPa27%
19-Apr-2024 00:00Scattered Clouds13°C2 mph, SW34%10000m1018hPa23%
19-Apr-2024 03:00Clear Sky8°C9 mph, N4%10000m1019hPa42%
19-Apr-2024 06:00Clear Sky6°C2 mph, NE2%10000m1020hPa44%
19-Apr-2024 09:00Clear Sky5°C2 mph, E0%10000m1021hPa52%
19-Apr-2024 12:00Clear Sky4°C2 mph, E2%10000m1021hPa57%
19-Apr-2024 15:00Few Clouds7°C2 mph, SE19%10000m1022hPa48%
19-Apr-2024 18:00Scattered Clouds13°C9 mph, SE43%10000m1019hPa31%
19-Apr-2024 21:00Overcast Clouds15°C7 mph, S100%10000m1017hPa26%
20-Apr-2024 00:00Overcast Clouds16°C7 mph, SE100%10000m1015hPa25%
20-Apr-2024 03:00Overcast Clouds12°C0 mph, SW100%10000m1015hPa34%
20-Apr-2024 06:00Overcast Clouds11°C2 mph, SE100%10000m1015hPa35%
20-Apr-2024 09:00Broken Clouds9°C2 mph, E83%10000m1016hPa39%
20-Apr-2024 12:00Broken Clouds7°C2 mph, E72%10000m1017hPa43%
20-Apr-2024 15:00Scattered Clouds11°C2 mph, E50%10000m1018hPa40%
20-Apr-2024 18:00Scattered Clouds15°C7 mph, SW44%10000m1018hPa31%
20-Apr-2024 21:00Clear Sky17°C4 mph, W7%10000m1016hPa30%
21-Apr-2024 00:00Clear Sky18°C7 mph, NW9%10000m1015hPa33%
21-Apr-2024 03:00Overcast Clouds15°C2 mph, NE100%10000m1014hPa39%
21-Apr-2024 06:00Overcast Clouds14°C4 mph, SE100%10000m1015hPa40%
21-Apr-2024 09:00Overcast Clouds12°C2 mph, N90%10000m1016hPa44%
21-Apr-2024 12:00Overcast Clouds9°C4 mph, NW96%10000m1018hPa61%
21-Apr-2024 15:00Overcast Clouds11°C11 mph, NW88%10000m1019hPa57%
21-Apr-2024 18:00Overcast Clouds14°C13 mph, NW90%10000m1018hPa37%
21-Apr-2024 21:00Overcast Clouds15°C13 mph, NW100%10000m1017hPa36%
22-Apr-2024 00:00Broken Clouds16°C13 mph, NW84%10000m1015hPa32%
22-Apr-2024 03:00Overcast Clouds13°C7 mph, NE94%10000m1014hPa34%
22-Apr-2024 06:00Overcast Clouds10°C2 mph, N97%10000m1014hPa40%
22-Apr-2024 09:00Overcast Clouds9°C2 mph, NW99%10000m1014hPa45%
22-Apr-2024 12:00Overcast Clouds7°C2 mph, NW100%10000m1014hPa47%
22-Apr-2024 15:00Overcast Clouds9°C2 mph, NW100%10000m1014hPa44%
22-Apr-2024 18:00Overcast Clouds15°C7 mph, W100%10000m1012hPa36%
22-Apr-2024 21:00Overcast Clouds18°C7 mph, NW100%10000m1009hPa26%